Terminal Aerodrome Forecast
Issued by NWS Amarillo, TX

Current Version | Previous Version | Text Only | Print | Product List | Glossary Off
Versions: 1 2 3 4 5 6 7 8 9 10 11 12 13 14 15 16 17 18 19 20

000
FTUS44 KAMA 152000 AAA
TAFAMA
TAF AMD
KAMA 152015Z 1520/1618 25010KT P6SM OVC035
     FM152100 01013KT P6SM OVC020
     FM160200 07010KT P6SM OVC015
     FM160600 11006KT P6SM OVC006
     FM161600 19009KT P6SM OVC015=

USA.gov is the U.S. government's official web portal to all federal, state and local government web resources and services.